ADR7L LQSA-LJLJ
Flight info
| Callsign | ADR7L |
|---|---|
| Flight time | 0h 40m |
| Altitude | 26000 |
| Route | BOSNA DCT GORPA GORPA1L |
| Aircraft | A320/M-SDE3FGHIRWY/LB1 |
Departure
| Time | 2026-04-17 13:03 |
|---|---|
| Airport | Sarajevo International Airport (LQSA) |
Arrival
| Time | 2026-04-17 13:43 |
|---|---|
| Airport | Ljubljana Jože Pučnik Airport (LJLJ) |
| Time | Latitude | Longitude | Altitude | Speed | Heading |
|---|---|---|---|---|---|
| 2026-04-17 12:31 | 43.82477 | 18.33794 | 1706 ft | 0 kts | 27° |
| 2026-04-17 12:53 | 43.82451 | 18.33775 | 1710 ft | 3 kts | 27° |
| 2026-04-17 12:53 | 43.82437 | 18.33765 | 1706 ft | 0 kts | 27° |
| 2026-04-17 12:56 | 43.82438 | 18.33766 | 1706 ft | 1 kts | 27° |
| 2026-04-17 12:57 | 43.82449 | 18.33772 | 1709 ft | 2 kts | 18° |
| 2026-04-17 12:57 | 43.82452 | 18.33766 | 1708 ft | 0 kts | 319° |
| 2026-04-17 12:57 | 43.82452 | 18.33763 | 1708 ft | 0 kts | 294° |
| 2026-04-17 12:57 | 43.82451 | 18.33760 | 1708 ft | 0 kts | 273° |
| 2026-04-17 12:58 | 43.82449 | 18.33757 | 1709 ft | 0 kts | 246° |
| 2026-04-17 12:58 | 43.82446 | 18.33756 | 1709 ft | 0 kts | 218° |
| 2026-04-17 12:58 | 43.82426 | 18.33752 | 1711 ft | 5 kts | 181° |
| 2026-04-17 12:58 | 43.82411 | 18.33761 | 1706 ft | 2 kts | 148° |
| 2026-04-17 12:59 | 43.82392 | 18.33802 | 1707 ft | 10 kts | 119° |
| 2026-04-17 12:59 | 43.82355 | 18.33901 | 1708 ft | 12 kts | 115° |
| 2026-04-17 12:59 | 43.82325 | 18.33985 | 1709 ft | 7 kts | 117° |
| 2026-04-17 12:59 | 43.82301 | 18.34048 | 1709 ft | 9 kts | 119° |
| 2026-04-17 13:00 | 43.82268 | 18.34133 | 1710 ft | 11 kts | 117° |
| 2026-04-17 13:00 | 43.82233 | 18.34227 | 1711 ft | 11 kts | 117° |
| 2026-04-17 13:00 | 43.82194 | 18.34330 | 1712 ft | 13 kts | 117° |
| 2026-04-17 13:00 | 43.82152 | 18.34443 | 1713 ft | 14 kts | 117° |
| 2026-04-17 13:01 | 43.82108 | 18.34560 | 1714 ft | 10 kts | 119° |
| 2026-04-17 13:01 | 43.82063 | 18.34615 | 1715 ft | 9 kts | 154° |
| 2026-04-17 13:01 | 43.82001 | 18.34621 | 1716 ft | 10 kts | 192° |
| 2026-04-17 13:01 | 43.81945 | 18.34571 | 1716 ft | 11 kts | 234° |
| 2026-04-17 13:02 | 43.81964 | 18.34465 | 1714 ft | 15 kts | 300° |
| 2026-04-17 13:02 | 43.82090 | 18.34132 | 1711 ft | 73 kts | 297° |
| 2026-04-17 13:02 | 43.82422 | 18.33248 | 1697 ft | 131 kts | 297° |
| 2026-04-17 13:02 | 43.82919 | 18.31936 | 1780 ft | 165 kts | 297° |
| 2026-04-17 13:03 | 43.83472 | 18.30587 | 2374 ft | 165 kts | 314° |
| 2026-04-17 13:03 | 43.84451 | 18.29798 | 2775 ft | 172 kts | 349° |
| 2026-04-17 13:03 | 43.85668 | 18.29446 | 3142 ft | 187 kts | 349° |
| 2026-04-17 13:03 | 43.87015 | 18.28978 | 3347 ft | 212 kts | 347° |
| 2026-04-17 13:04 | 43.88518 | 18.28410 | 3776 ft | 233 kts | 346° |
| 2026-04-17 13:04 | 43.90087 | 18.27796 | 4490 ft | 240 kts | 345° |
| 2026-04-17 13:04 | 43.91693 | 18.27157 | 5473 ft | 237 kts | 346° |
| 2026-04-17 13:04 | 43.93286 | 18.26518 | 6351 ft | 239 kts | 346° |
| 2026-04-17 13:05 | 43.94902 | 18.25873 | 7196 ft | 242 kts | 348° |
| 2026-04-17 13:05 | 43.96582 | 18.25526 | 7729 ft | 257 kts | 356° |
| 2026-04-17 13:05 | 43.98416 | 18.25281 | 8358 ft | 268 kts | 355° |
| 2026-04-17 13:05 | 44.00295 | 18.25043 | 9135 ft | 273 kts | 355° |
| 2026-04-17 13:06 | 44.02195 | 18.24803 | 9960 ft | 278 kts | 355° |
| 2026-04-17 13:06 | 44.04143 | 18.24535 | 10658 ft | 282 kts | 351° |
| 2026-04-17 13:06 | 44.06044 | 18.23784 | 11330 ft | 287 kts | 336° |
| 2026-04-17 13:06 | 44.07757 | 18.22343 | 11827 ft | 302 kts | 322° |
| 2026-04-17 13:07 | 44.09278 | 18.20163 | 11993 ft | 326 kts | 313° |
| 2026-04-17 13:07 | 44.10812 | 18.17718 | 12408 ft | 339 kts | 312° |
| 2026-04-17 13:07 | 44.12384 | 18.15214 | 12968 ft | 346 kts | 312° |
| 2026-04-17 13:07 | 44.13982 | 18.12674 | 13670 ft | 349 kts | 313° |
| 2026-04-17 13:08 | 44.15572 | 18.10145 | 14313 ft | 352 kts | 313° |
| 2026-04-17 13:08 | 44.17202 | 18.07559 | 14932 ft | 354 kts | 313° |
| 2026-04-17 13:08 | 44.18834 | 18.04973 | 15591 ft | 356 kts | 313° |
| 2026-04-17 13:08 | 44.20475 | 18.02374 | 16199 ft | 358 kts | 313° |
| 2026-04-17 13:09 | 44.22131 | 17.99752 | 16771 ft | 362 kts | 313° |
| 2026-04-17 13:09 | 44.23802 | 17.97106 | 17361 ft | 364 kts | 313° |
| 2026-04-17 13:09 | 44.25464 | 17.94468 | 17919 ft | 369 kts | 313° |
| 2026-04-17 13:09 | 44.27171 | 17.91751 | 18483 ft | 373 kts | 313° |
| 2026-04-17 13:10 | 44.28890 | 17.89014 | 19049 ft | 376 kts | 313° |
| 2026-04-17 13:10 | 44.30625 | 17.86251 | 19647 ft | 378 kts | 313° |
| 2026-04-17 13:10 | 44.32362 | 17.83481 | 20258 ft | 380 kts | 313° |
| 2026-04-17 13:10 | 44.34090 | 17.80718 | 20825 ft | 382 kts | 313° |
| 2026-04-17 13:11 | 44.35846 | 17.77906 | 21393 ft | 385 kts | 313° |
| 2026-04-17 13:11 | 44.37612 | 17.75076 | 21917 ft | 387 kts | 312° |
| 2026-04-17 13:11 | 44.39376 | 17.72212 | 22433 ft | 389 kts | 312° |
| 2026-04-17 13:11 | 44.41137 | 17.69313 | 22946 ft | 392 kts | 311° |
| 2026-04-17 13:12 | 44.42901 | 17.66388 | 23465 ft | 394 kts | 311° |
| 2026-04-17 13:12 | 44.46438 | 17.60510 | 24329 ft | 398 kts | 311° |
| 2026-04-17 13:12 | 44.48231 | 17.57536 | 24741 ft | 400 kts | 311° |
| 2026-04-17 13:13 | 44.50036 | 17.54550 | 25120 ft | 402 kts | 311° |
| 2026-04-17 13:13 | 44.51848 | 17.51547 | 25504 ft | 404 kts | 311° |
| 2026-04-17 13:13 | 44.53667 | 17.48527 | 25876 ft | 406 kts | 311° |
| 2026-04-17 13:13 | 44.55495 | 17.45491 | 26086 ft | 407 kts | 311° |
| 2026-04-17 13:14 | 44.57330 | 17.42443 | 26129 ft | 409 kts | 311° |
| 2026-04-17 13:14 | 44.59174 | 17.39375 | 26131 ft | 410 kts | 311° |
| 2026-04-17 13:14 | 44.60986 | 17.36352 | 26129 ft | 410 kts | 311° |
| 2026-04-17 13:14 | 44.62819 | 17.33284 | 26132 ft | 410 kts | 311° |
| 2026-04-17 13:15 | 44.64654 | 17.30215 | 26138 ft | 410 kts | 311° |
| 2026-04-17 13:15 | 44.66485 | 17.27153 | 26131 ft | 408 kts | 311° |
| 2026-04-17 13:15 | 44.68313 | 17.24094 | 26124 ft | 408 kts | 311° |
| 2026-04-17 13:15 | 44.70142 | 17.21030 | 26132 ft | 409 kts | 311° |
| 2026-04-17 13:16 | 44.71949 | 17.17990 | 26129 ft | 409 kts | 311° |
| 2026-04-17 13:16 | 44.73775 | 17.14916 | 26132 ft | 409 kts | 311° |
| 2026-04-17 13:16 | 44.75603 | 17.11844 | 26132 ft | 409 kts | 311° |
| 2026-04-17 13:16 | 44.77430 | 17.08771 | 26129 ft | 409 kts | 311° |
| 2026-04-17 13:17 | 44.79262 | 17.05685 | 26132 ft | 409 kts | 311° |
| 2026-04-17 13:17 | 44.81061 | 17.02647 | 26132 ft | 409 kts | 311° |
| 2026-04-17 13:17 | 44.82890 | 16.99556 | 26131 ft | 409 kts | 311° |
| 2026-04-17 13:17 | 44.84713 | 16.96476 | 26130 ft | 409 kts | 311° |
| 2026-04-17 13:18 | 44.86528 | 16.93404 | 26124 ft | 409 kts | 311° |
| 2026-04-17 13:18 | 44.88354 | 16.90311 | 26121 ft | 409 kts | 311° |
| 2026-04-17 13:18 | 44.90175 | 16.87226 | 26118 ft | 409 kts | 311° |
| 2026-04-17 13:18 | 44.91988 | 16.84150 | 26125 ft | 409 kts | 311° |
| 2026-04-17 13:19 | 44.93788 | 16.81095 | 26124 ft | 408 kts | 311° |
| 2026-04-17 13:19 | 44.95607 | 16.78011 | 26135 ft | 408 kts | 311° |
| 2026-04-17 13:19 | 44.97422 | 16.74926 | 26130 ft | 408 kts | 311° |
| 2026-04-17 13:19 | 44.99239 | 16.71825 | 26134 ft | 408 kts | 311° |
| 2026-04-17 13:20 | 45.01047 | 16.68732 | 26128 ft | 408 kts | 311° |
| 2026-04-17 13:20 | 45.02829 | 16.65678 | 26113 ft | 408 kts | 311° |
| 2026-04-17 13:20 | 45.04641 | 16.62571 | 26114 ft | 408 kts | 311° |
| 2026-04-17 13:20 | 45.06450 | 16.59474 | 26112 ft | 408 kts | 311° |
| 2026-04-17 13:21 | 45.08258 | 16.56374 | 26117 ft | 408 kts | 311° |
| 2026-04-17 13:21 | 45.10071 | 16.53259 | 26120 ft | 408 kts | 311° |
| 2026-04-17 13:21 | 45.11878 | 16.50152 | 26116 ft | 408 kts | 311° |
| 2026-04-17 13:21 | 45.13661 | 16.47082 | 26116 ft | 408 kts | 311° |
| 2026-04-17 13:22 | 45.15468 | 16.43972 | 26116 ft | 408 kts | 311° |
| 2026-04-17 13:22 | 45.17280 | 16.40847 | 26121 ft | 409 kts | 311° |
| 2026-04-17 13:22 | 45.19084 | 16.37730 | 26127 ft | 408 kts | 310° |
| 2026-04-17 13:22 | 45.20879 | 16.34624 | 26117 ft | 408 kts | 310° |
| 2026-04-17 13:23 | 45.22679 | 16.31509 | 26126 ft | 408 kts | 310° |
| 2026-04-17 13:23 | 45.24479 | 16.28395 | 26126 ft | 408 kts | 310° |
| 2026-04-17 13:23 | 45.26268 | 16.25294 | 26033 ft | 401 kts | 310° |
| 2026-04-17 13:23 | 45.28015 | 16.22260 | 25568 ft | 395 kts | 310° |
| 2026-04-17 13:24 | 45.29722 | 16.19289 | 25042 ft | 391 kts | 310° |
| 2026-04-17 13:24 | 45.31441 | 16.16301 | 24514 ft | 389 kts | 310° |
| 2026-04-17 13:24 | 45.33157 | 16.13323 | 24004 ft | 387 kts | 310° |
| 2026-04-17 13:24 | 45.34857 | 16.10368 | 23478 ft | 385 kts | 310° |
| 2026-04-17 13:25 | 45.36545 | 16.07426 | 22918 ft | 382 kts | 310° |
| 2026-04-17 13:25 | 45.38197 | 16.04534 | 22389 ft | 380 kts | 310° |
| 2026-04-17 13:25 | 45.39860 | 16.01615 | 21888 ft | 378 kts | 310° |
| 2026-04-17 13:25 | 45.41517 | 15.98716 | 21417 ft | 376 kts | 310° |
| 2026-04-17 13:26 | 45.43163 | 15.95833 | 20943 ft | 374 kts | 310° |
| 2026-04-17 13:26 | 45.44794 | 15.92971 | 20465 ft | 371 kts | 310° |
| 2026-04-17 13:26 | 45.46418 | 15.90122 | 20029 ft | 368 kts | 310° |
| 2026-04-17 13:26 | 45.48026 | 15.87292 | 19562 ft | 366 kts | 310° |
| 2026-04-17 13:27 | 45.49623 | 15.84478 | 19094 ft | 363 kts | 310° |
| 2026-04-17 13:27 | 45.51211 | 15.81682 | 18617 ft | 361 kts | 310° |
| 2026-04-17 13:27 | 45.52775 | 15.78930 | 18092 ft | 359 kts | 310° |
| 2026-04-17 13:27 | 45.54343 | 15.76166 | 17559 ft | 357 kts | 310° |
| 2026-04-17 13:28 | 45.55897 | 15.73423 | 17016 ft | 354 kts | 310° |
| 2026-04-17 13:28 | 45.57438 | 15.70701 | 16504 ft | 351 kts | 310° |
| 2026-04-17 13:28 | 45.58971 | 15.67989 | 15988 ft | 348 kts | 310° |
| 2026-04-17 13:28 | 45.60485 | 15.65302 | 15487 ft | 346 kts | 310° |
| 2026-04-17 13:29 | 45.61968 | 15.62668 | 14994 ft | 343 kts | 310° |
| 2026-04-17 13:29 | 45.63460 | 15.60016 | 14500 ft | 341 kts | 310° |
| 2026-04-17 13:29 | 45.64943 | 15.57382 | 14017 ft | 339 kts | 310° |
| 2026-04-17 13:29 | 45.66421 | 15.54757 | 13480 ft | 336 kts | 310° |
| 2026-04-17 13:30 | 45.67866 | 15.52188 | 12939 ft | 335 kts | 310° |
| 2026-04-17 13:30 | 45.69323 | 15.49595 | 12411 ft | 333 kts | 310° |
| 2026-04-17 13:30 | 45.70773 | 15.47010 | 11898 ft | 332 kts | 310° |
| 2026-04-17 13:30 | 45.72217 | 15.44436 | 11379 ft | 330 kts | 310° |
| 2026-04-17 13:31 | 45.73657 | 15.41861 | 10863 ft | 329 kts | 310° |
| 2026-04-17 13:31 | 45.75086 | 15.39304 | 10328 ft | 328 kts | 310° |
| 2026-04-17 13:31 | 45.76490 | 15.36789 | 9894 ft | 325 kts | 311° |
| 2026-04-17 13:31 | 45.77867 | 15.34300 | 9757 ft | 313 kts | 310° |
| 2026-04-17 13:32 | 45.79151 | 15.31850 | 9623 ft | 302 kts | 308° |
| 2026-04-17 13:32 | 45.80367 | 15.29455 | 9487 ft | 292 kts | 308° |
| 2026-04-17 13:32 | 45.81537 | 15.27127 | 9304 ft | 284 kts | 308° |
| 2026-04-17 13:32 | 45.82690 | 15.24832 | 8998 ft | 281 kts | 308° |
| 2026-04-17 13:33 | 45.83835 | 15.22563 | 8648 ft | 280 kts | 308° |
| 2026-04-17 13:33 | 45.84975 | 15.20314 | 8303 ft | 279 kts | 308° |
| 2026-04-17 13:33 | 45.86105 | 15.18090 | 7968 ft | 278 kts | 309° |
| 2026-04-17 13:33 | 45.87248 | 15.15839 | 7632 ft | 277 kts | 308° |
| 2026-04-17 13:34 | 45.88383 | 15.13604 | 7317 ft | 276 kts | 309° |
| 2026-04-17 13:34 | 45.89514 | 15.11378 | 6996 ft | 276 kts | 308° |
| 2026-04-17 13:34 | 45.90640 | 15.09154 | 6701 ft | 274 kts | 309° |
| 2026-04-17 13:34 | 45.91765 | 15.06925 | 6354 ft | 274 kts | 308° |
| 2026-04-17 13:35 | 45.92870 | 15.04739 | 6226 ft | 274 kts | 308° |
| 2026-04-17 13:35 | 45.93987 | 15.02526 | 6094 ft | 274 kts | 308° |
| 2026-04-17 13:35 | 45.95096 | 15.00273 | 5968 ft | 276 kts | 308° |
| 2026-04-17 13:35 | 45.96194 | 14.98008 | 5964 ft | 276 kts | 307° |
| 2026-04-17 13:36 | 45.97294 | 14.95732 | 5997 ft | 276 kts | 306° |
| 2026-04-17 13:36 | 45.98372 | 14.93493 | 5996 ft | 276 kts | 307° |
| 2026-04-17 13:36 | 45.99461 | 14.91230 | 5994 ft | 275 kts | 307° |
| 2026-04-17 13:36 | 46.00553 | 14.88969 | 5992 ft | 271 kts | 307° |
| 2026-04-17 13:37 | 46.01597 | 14.86803 | 5984 ft | 257 kts | 307° |
| 2026-04-17 13:37 | 46.02595 | 14.84732 | 5984 ft | 244 kts | 307° |
| 2026-04-17 13:37 | 46.03534 | 14.82783 | 5980 ft | 233 kts | 307° |
| 2026-04-17 13:37 | 46.04480 | 14.80827 | 5978 ft | 240 kts | 307° |
| 2026-04-17 13:38 | 46.05462 | 14.78903 | 5913 ft | 243 kts | 313° |
| 2026-04-17 13:38 | 46.06641 | 14.77089 | 5382 ft | 252 kts | 310° |
| 2026-04-17 13:38 | 46.07590 | 14.75017 | 5222 ft | 246 kts | 302° |
| 2026-04-17 13:38 | 46.08423 | 14.72872 | 4951 ft | 244 kts | 301° |
| 2026-04-17 13:39 | 46.09377 | 14.70853 | 4648 ft | 242 kts | 309° |
| 2026-04-17 13:39 | 46.10386 | 14.68953 | 4514 ft | 234 kts | 309° |
| 2026-04-17 13:39 | 46.11356 | 14.67153 | 4450 ft | 221 kts | 309° |
| 2026-04-17 13:39 | 46.12274 | 14.65426 | 4267 ft | 216 kts | 310° |
| 2026-04-17 13:40 | 46.13139 | 14.63742 | 4122 ft | 202 kts | 308° |
| 2026-04-17 13:40 | 46.13965 | 14.62125 | 3715 ft | 200 kts | 309° |
| 2026-04-17 13:40 | 46.14788 | 14.60543 | 3397 ft | 194 kts | 309° |
| 2026-04-17 13:40 | 46.15560 | 14.59047 | 3201 ft | 180 kts | 308° |
| 2026-04-17 13:41 | 46.16275 | 14.57651 | 2945 ft | 167 kts | 310° |
| 2026-04-17 13:41 | 46.16956 | 14.56338 | 2722 ft | 164 kts | 310° |
| 2026-04-17 13:41 | 46.17632 | 14.55033 | 2515 ft | 161 kts | 309° |
| 2026-04-17 13:41 | 46.18081 | 14.54157 | 2378 ft | 160 kts | 310° |
| 2026-04-17 13:42 | 46.18959 | 14.52463 | 2037 ft | 156 kts | 309° |
| 2026-04-17 13:42 | 46.19585 | 14.51202 | 1856 ft | 153 kts | 309° |
| 2026-04-17 13:42 | 46.20010 | 14.50374 | 1710 ft | 151 kts | 308° |
| 2026-04-17 13:42 | 46.20626 | 14.49175 | 1530 ft | 148 kts | 308° |
| 2026-04-17 13:43 | 46.21239 | 14.47976 | 1328 ft | 148 kts | 308° |
| 2026-04-17 13:43 | 46.21835 | 14.46806 | 1228 ft | 133 kts | 307° |
| 2026-04-17 13:43 | 46.22283 | 14.45929 | 1249 ft | 76 kts | 306° |
| 2026-04-17 13:43 | 46.22471 | 14.45573 | 1259 ft | 25 kts | 308° |
| 2026-04-17 13:44 | 46.22584 | 14.45427 | 1259 ft | 22 kts | 328° |
| 2026-04-17 13:44 | 46.22684 | 14.45356 | 1263 ft | 13 kts | 340° |
| 2026-04-17 13:44 | 46.22770 | 14.45325 | 1263 ft | 10 kts | 349° |
| 2026-04-17 13:44 | 46.22837 | 14.45314 | 1259 ft | 8 kts | 1° |
| 2026-04-17 13:45 | 46.22874 | 14.45346 | 1261 ft | 8 kts | 37° |
| 2026-04-17 13:45 | 46.22916 | 14.45390 | 1259 ft | 7 kts | 36° |
| 2026-04-17 13:45 | 46.22947 | 14.45412 | 1263 ft | 3 kts | 349° |
| 2026-04-17 13:45 | 46.22966 | 14.45379 | 1265 ft | 5 kts | 309° |
| 2026-04-17 13:46 | 46.22998 | 14.45389 | 1258 ft | 6 kts | 34° |
| 2026-04-17 13:46 | 46.23018 | 14.45410 | 1264 ft | 3 kts | 36° |
| 2026-04-17 13:46 | 46.23025 | 14.45417 | 1258 ft | 1 kts | 36° |
| 2026-04-17 13:46 | 46.23027 | 14.45419 | 1258 ft | 0 kts | 36° |